Time;durP1;ratioP1;P1;durP2;ratioP2;P2;SDS_P1;SDS_P2;PMS_P1;PMS_P2;Temp;Humidity;BMP_temperature;BMP_pressure;BME280_temperature;BME280_humidity;BME280_pressure;Samples;Min_cycle;Max_cycle;Signal;HPM_P1;HPM_P2
2022/04/23 00:01:03;;;;;;;3.17;1.90;;;;;;;-140.79;100.00;63287.88;5044666;28;20412;-52
2022/04/23 00:03:29;;;;;;;2.30;1.75;;;;;;;-140.79;100.00;63287.88;5026880;28;20029;-52
2022/04/23 00:05:54;;;;;;;2.75;2.08;;;;;;;-140.79;100.00;63287.88;5044463;28;20040;-52
2022/04/23 00:08:19;;;;;;;2.30;1.75;;;;;;;-140.79;100.00;63287.88;5044227;28;20021;-52
2022/04/23 00:10:45;;;;;;;3.17;1.77;;;;;;;-140.79;100.00;63287.88;5026334;28;20025;-52
2022/04/23 00:13:10;;;;;;;3.13;2.00;;;;;;;-140.79;100.00;63287.88;5044403;28;20029;-53
2022/04/23 00:15:39;;;;;;;2.58;1.80;;;;;;;-140.79;100.00;63287.88;5043914;28;20025;-54
2022/04/23 00:18:08;;;;;;;2.30;1.88;;;;;;;-140.79;100.00;63287.88;5045866;28;20041;-52
2022/04/23 00:20:34;;;;;;;3.40;2.13;;;;;;;-140.79;100.00;63287.88;5058236;28;20072;-52
2022/04/23 00:22:59;;;;;;;3.13;1.90;;;;;;;-140.79;100.00;63287.88;5043987;28;20025;-53
2022/04/23 00:25:27;;;;;;;3.08;1.70;;;;;;;-140.79;100.00;63287.88;5044254;28;20036;-52
2022/04/23 00:27:53;;;;;;;3.28;2.10;;;;;;;-140.79;100.00;63287.88;5047361;28;20182;-53
2022/04/23 00:30:19;;;;;;;2.53;1.80;;;;;;;-140.79;100.00;63287.88;5048129;28;20301;-54
2022/04/23 00:32:44;;;;;;;2.53;1.80;;;;;;;-140.79;100.00;63287.88;5048077;28;20056;-54
2022/04/23 00:35:14;;;;;;;2.72;1.70;;;;;;;-140.79;100.00;63287.88;5047651;28;20037;-55
2022/04/23 00:37:39;;;;;;;2.50;2.00;;;;;;;-140.79;100.00;63287.88;5047907;28;20044;-52
2022/04/23 00:40:06;;;;;;;2.25;1.77;;;;;;;-140.79;100.00;63287.88;5049892;28;20083;-52
2022/04/23 00:42:32;;;;;;;2.70;1.63;;;;;;;-140.79;100.00;63287.88;5068391;28;20036;-55
2022/04/23 00:44:58;;;;;;;3.40;1.90;;;;;;;-140.79;100.00;63287.88;5068071;28;20067;-56
2022/04/23 00:47:23;;;;;;;2.97;2.00;;;;;;;-140.79;100.00;63287.88;5068164;28;20464;-54
2022/04/23 00:49:49;;;;;;;2.47;1.65;;;;;;;-140.79;100.00;63287.88;5067631;28;20389;-55
2022/04/23 00:52:14;;;;;;;2.58;1.80;;;;;;;-140.79;100.00;63287.88;5067648;28;20531;-52
2022/04/23 00:54:40;;;;;;;2.30;1.90;;;;;;;-140.79;100.00;63287.88;5049994;28;20021;-52
2022/04/23 00:57:06;;;;;;;1.70;1.45;;;;;;;-140.79;100.00;63287.88;5056582;28;20029;-55
2022/04/23 00:59:31;;;;;;;2.55;1.67;;;;;;;-140.79;100.00;63287.88;5060700;28;20079;-55
2022/04/23 01:01:57;;;;;;;2.38;1.65;;;;;;;-140.79;100.00;63287.88;5032515;28;20033;-52
2022/04/23 01:04:22;;;;;;;2.55;1.80;;;;;;;-140.79;100.00;63287.88;5047929;28;20043;-52
2022/04/23 01:06:48;;;;;;;2.42;1.75;;;;;;;-140.79;100.00;63287.88;5047912;28;20028;-53
2022/04/23 01:09:14;;;;;;;2.95;1.65;;;;;;;-140.79;100.00;63287.88;5029155;28;20051;-55
2022/04/23 01:11:39;;;;;;;3.30;1.60;;;;;;;-140.79;100.00;63287.88;5047945;28;20095;-56
2022/04/23 01:14:05;;;;;;;1.70;1.60;;;;;;;-140.79;100.00;63287.88;5047233;28;20033;-54
2022/04/23 01:16:31;;;;;;;2.33;1.73;;;;;;;-140.79;100.00;63287.88;5047456;28;20021;-52
2022/04/23 01:18:56;;;;;;;2.65;1.63;;;;;;;-140.79;100.00;63287.88;5046430;28;20039;-53
2022/04/23 01:21:22;;;;;;;3.15;1.80;;;;;;;-140.79;100.00;63287.88;5047500;28;20040;-56
2022/04/23 01:23:48;;;;;;;2.53;1.60;;;;;;;-140.79;100.00;63287.88;5047269;28;20033;-55
2022/04/23 01:26:22;;;;;;;2.30;1.88;;;;;;;-140.79;100.00;63287.88;5047448;28;20095;-56
2022/04/23 01:28:49;;;;;;;3.35;1.85;;;;;;;-140.79;100.00;63287.88;5046301;28;20413;-56
2022/04/23 01:31:14;;;;;;;2.30;1.63;;;;;;;-140.79;100.00;63287.88;5047031;28;20073;-55
2022/04/23 01:33:40;;;;;;;1.85;1.48;;;;;;;-140.79;100.00;63287.88;5047276;28;20031;-55
2022/04/23 01:36:05;;;;;;;2.25;1.60;;;;;;;-140.79;100.00;63287.88;5046846;28;20044;-51
2022/04/23 01:38:31;;;;;;;2.83;1.50;;;;;;;-140.79;100.00;63287.88;5032412;28;20048;-54
2022/04/23 01:40:56;;;;;;;2.63;1.60;;;;;;;-140.79;100.00;63287.88;5058406;28;20054;-54
2022/04/23 01:43:22;;;;;;;2.50;1.80;;;;;;;-140.79;100.00;63287.88;5047008;28;20098;-54
2022/04/23 01:45:47;;;;;;;2.40;1.67;;;;;;;-140.79;100.00;63287.88;5047126;28;20083;-52
2022/04/23 01:48:13;;;;;;;2.17;1.60;;;;;;;-140.79;100.00;63287.88;5028172;28;20024;-55
2022/04/23 01:50:38;;;;;;;2.00;1.58;;;;;;;-140.79;100.00;63287.88;5046843;28;20496;-52
2022/04/23 01:53:04;;;;;;;2.28;1.55;;;;;;;-140.79;100.00;63287.88;5046774;28;20554;-55
2022/04/23 01:55:30;;;;;;;2.97;1.60;;;;;;;-140.79;100.00;63287.88;5046299;28;20420;-53
2022/04/23 01:57:55;;;;;;;2.55;1.60;;;;;;;-140.79;100.00;63287.88;5046314;28;20021;-54
2022/04/23 02:00:21;;;;;;;2.08;1.80;;;;;;;-140.79;100.00;63287.88;5062757;28;20028;-54
2022/04/23 02:02:46;;;;;;;2.88;1.73;;;;;;;-140.79;100.00;63287.88;5046812;28;20082;-55
2022/04/23 02:05:12;;;;;;;1.98;1.48;;;;;;;-140.79;100.00;63287.88;5046655;28;20114;-52
2022/04/23 02:07:41;;;;;;;1.83;1.35;;;;;;;-140.79;100.00;63287.88;5046243;28;20123;-52
2022/04/23 02:10:08;;;;;;;2.13;1.60;;;;;;;-140.79;100.00;63287.88;5046343;28;20063;-51
2022/04/23 02:12:34;;;;;;;2.45;1.70;;;;;;;-140.79;100.00;63287.88;5046649;28;20116;-52
2022/04/23 02:15:00;;;;;;;2.28;1.65;;;;;;;-140.79;100.00;63287.88;5046148;28;20048;-54
2022/04/23 02:17:34;;;;;;;2.40;1.70;;;;;;;-140.79;100.00;63287.88;5046448;28;20021;-54
2022/04/23 02:20:06;;;;;;;1.90;1.30;;;;;;;-140.79;100.00;63287.88;5062843;28;20037;-54
2022/04/23 02:22:31;;;;;;;2.78;1.50;;;;;;;-140.79;100.00;63287.88;5028450;28;20013;-55
2022/04/23 02:24:57;;;;;;;3.17;1.65;;;;;;;-140.79;100.00;63287.88;5045818;28;20126;-51
2022/04/23 02:27:23;;;;;;;2.00;1.50;;;;;;;-140.79;100.00;63287.88;5045886;28;20033;-54
2022/04/23 02:29:52;;;;;;;2.65;1.55;;;;;;;-140.79;100.00;63287.88;5045692;28;20033;-51
2022/04/23 02:32:17;;;;;;;2.70;1.67;;;;;;;-140.79;100.00;63287.88;5045389;28;20112;-53
2022/04/23 02:34:43;;;;;;;1.98;1.33;;;;;;;-140.79;100.00;63287.88;5045377;28;20052;-54
2022/04/23 02:37:09;;;;;;;2.42;1.63;;;;;;;-140.79;100.00;63287.88;5045869;28;20021;-54
2022/04/23 02:39:35;;;;;;;2.03;1.48;;;;;;;-140.79;100.00;63287.88;5059655;28;20821;-54
2022/04/23 02:42:00;;;;;;;2.42;1.60;;;;;;;-140.79;100.00;63287.88;5048110;28;20025;-51
2022/04/23 02:44:25;;;;;;;1.85;1.23;;;;;;;-140.79;100.00;63287.88;5045589;28;20078;-52
2022/04/23 02:46:52;;;;;;;1.83;1.50;;;;;;;-140.79;100.00;63287.88;5045689;28;20021;-52
2022/04/23 02:49:18;;;;;;;1.77;1.48;;;;;;;-140.79;100.00;63287.88;5045097;28;20543;-51
2022/04/23 02:51:43;;;;;;;2.67;1.45;;;;;;;-140.79;100.00;63287.88;5045694;28;20033;-52
2022/04/23 02:54:09;;;;;;;2.20;1.65;;;;;;;-140.79;100.00;63287.88;5045570;28;20094;-55
2022/04/23 02:56:35;;;;;;;2.70;1.50;;;;;;;-140.79;100.00;63287.88;5044018;28;20082;-55
2022/04/23 02:59:02;;;;;;;1.75;1.35;;;;;;;-140.79;100.00;63287.88;5052701;28;20051;-51
2022/04/23 03:01:29;;;;;;;1.75;1.42;;;;;;;-140.79;100.00;63287.88;5052353;28;20561;-51
2022/04/23 03:03:56;;;;;;;2.13;1.40;;;;;;;-140.79;100.00;63287.88;5045405;28;20037;-51
2022/04/23 03:06:22;;;;;;;2.08;1.35;;;;;;;-140.79;100.00;63287.88;5045196;28;20064;-53
2022/04/23 03:08:48;;;;;;;2.03;1.58;;;;;;;-140.79;100.00;63287.88;5045280;28;20424;-52
2022/04/23 03:11:14;;;;;;;2.10;1.50;;;;;;;-140.79;100.00;63287.88;5045221;28;20064;-51
2022/04/23 03:13:39;;;;;;;2.47;1.30;;;;;;;-140.79;100.00;63287.88;5027172;28;20488;-51
2022/04/23 03:16:05;;;;;;;2.30;1.33;;;;;;;-140.79;100.00;63287.88;5044570;28;20037;-53
2022/04/23 03:18:30;;;;;;;2.35;1.20;;;;;;;-140.79;100.00;63287.88;5049900;28;20028;-55
2022/04/23 03:20:56;;;;;;;1.75;1.30;;;;;;;-140.79;100.00;63287.88;5056668;28;20074;-54
2022/04/23 03:23:21;;;;;;;1.38;1.10;;;;;;;-140.79;100.00;63287.88;5026941;28;20112;-55
2022/04/23 03:25:47;;;;;;;2.08;1.27;;;;;;;-140.79;100.00;63287.88;5045175;28;20033;-53
2022/04/23 03:28:14;;;;;;;1.67;1.33;;;;;;;-140.79;100.00;63287.88;5045084;28;20027;-54
2022/04/23 03:30:40;;;;;;;2.30;1.35;;;;;;;-140.79;100.00;63287.88;5044684;28;20780;-53
2022/04/23 03:33:06;;;;;;;2.03;1.65;;;;;;;-140.79;100.00;63287.88;5044211;28;20045;-55
2022/04/23 03:35:31;;;;;;;2.28;1.30;;;;;;;-140.79;100.00;63287.88;5044734;28;20460;-55
2022/04/23 03:37:58;;;;;;;2.72;1.30;;;;;;;-140.79;100.00;63287.88;5044764;28;20144;-55
2022/04/23 03:40:23;;;;;;;1.98;1.30;;;;;;;-140.79;100.00;63287.88;5043189;28;20045;-52
2022/04/23 03:42:49;;;;;;;2.08;1.38;;;;;;;-140.79;100.00;63287.88;5044399;28;20462;-52
2022/04/23 03:45:16;;;;;;;2.08;1.48;;;;;;;-140.79;100.00;63287.88;5044829;28;20040;-52
2022/04/23 03:47:48;;;;;;;1.75;1.55;;;;;;;-140.79;100.00;63287.88;5044762;28;20640;-53
2022/04/23 03:50:14;;;;;;;2.30;1.30;;;;;;;-140.79;100.00;63287.88;5045016;28;20539;-55
2022/04/23 03:52:39;;;;;;;1.80;1.30;;;;;;;-140.79;100.00;63287.88;5043964;28;20033;-54
2022/04/23 03:55:05;;;;;;;2.28;1.60;;;;;;;-140.79;100.00;63287.88;5044992;28;20090;-55
2022/04/23 03:57:31;;;;;;;2.22;1.40;;;;;;;-140.79;100.00;63287.88;5044216;28;20040;-52
2022/04/23 03:59:57;;;;;;;2.45;1.40;;;;;;;-140.79;100.00;63287.88;5060663;28;20039;-51
2022/04/23 04:02:22;;;;;;;2.22;1.30;;;;;;;-140.79;100.00;63287.88;5043179;28;20264;-52
2022/04/23 04:04:48;;;;;;;1.75;1.25;;;;;;;-140.79;100.00;63287.88;5044238;28;20603;-52
2022/04/23 04:07:20;;;;;;;1.80;1.40;;;;;;;-140.79;100.00;63287.88;5044104;28;20040;-51
2022/04/23 04:09:45;;;;;;;1.88;1.42;;;;;;;-140.79;100.00;63287.88;5044289;28;20079;-51
2022/04/23 04:12:11;;;;;;;2.03;1.50;;;;;;;-140.79;100.00;63287.88;5043163;28;20033;-51
2022/04/23 04:14:37;;;;;;;1.52;1.20;;;;;;;-140.79;100.00;63287.88;5010068;28;20551;-53
2022/04/23 04:17:05;;;;;;;1.77;1.15;;;;;;;-140.79;100.00;63287.88;5043910;28;20029;-52
2022/04/23 04:19:31;;;;;;;2.10;1.30;;;;;;;-140.79;100.00;63287.88;5022541;28;20657;-51
2022/04/23 04:21:57;;;;;;;2.55;1.35;;;;;;;-140.79;100.00;63287.88;5029066;28;20132;-52
2022/04/23 04:24:23;;;;;;;2.55;1.40;;;;;;;-140.79;100.00;63287.88;5026085;28;20493;-51
2022/04/23 04:26:48;;;;;;;2.03;1.40;;;;;;;-140.79;100.00;63287.88;5037176;28;20091;-53
2022/04/23 04:29:14;;;;;;;1.75;1.20;;;;;;;-140.79;100.00;63287.88;5024156;28;20052;-51
2022/04/23 04:31:49;;;;;;;2.00;1.35;;;;;;;-140.79;100.00;63287.88;5037778;28;20049;-56
2022/04/23 04:34:30;;;;;;;2.22;1.50;;;;;;;-140.79;100.00;63287.88;5044161;28;20053;-52
2022/04/23 04:37:03;;;;;;;2.28;1.40;;;;;;;-140.79;100.00;63287.88;5043553;28;20025;-52
2022/04/23 04:39:29;;;;;;;1.70;1.40;;;;;;;-140.79;100.00;63287.88;5056182;28;20050;-52
2022/04/23 04:41:54;;;;;;;2.03;1.10;;;;;;;-140.79;100.00;63287.88;5047889;28;20494;-53
2022/04/23 04:44:20;;;;;;;2.22;1.50;;;;;;;-140.79;100.00;63287.88;5043771;28;20037;-54
2022/04/23 04:46:45;;;;;;;2.30;1.33;;;;;;;-140.79;100.00;63287.88;5044081;28;20503;-53
2022/04/23 04:49:11;;;;;;;2.38;1.13;;;;;;;-140.79;100.00;63287.88;5044154;28;20508;-54
2022/04/23 04:51:36;;;;;;;2.53;1.30;;;;;;;-140.79;100.00;63287.88;5043594;28;20507;-52
2022/04/23 04:54:05;;;;;;;2.05;1.30;;;;;;;-140.79;100.00;63287.88;5043745;28;20037;-52
2022/04/23 04:56:31;;;;;;;2.50;1.30;;;;;;;-140.79;100.00;63287.88;5042236;28;20132;-54
2022/04/23 04:58:56;;;;;;;2.13;1.25;;;;;;;-140.79;100.00;63287.88;5042849;28;20098;-51
2022/04/23 05:01:21;;;;;;;1.60;1.40;;;;;;;-140.79;100.00;63287.88;5043145;28;20467;-51
2022/04/23 05:03:47;;;;;;;1.63;1.20;;;;;;;-140.79;100.00;63287.88;5025757;28;20119;-52
2022/04/23 05:06:12;;;;;;;2.40;1.30;;;;;;;-140.79;100.00;63287.88;5043692;28;20037;-54
2022/04/23 05:08:38;;;;;;;1.90;1.50;;;;;;;-140.79;100.00;63287.88;5029535;28;20052;-54
2022/04/23 05:11:04;;;;;;;2.40;1.50;;;;;;;-140.79;100.00;63287.88;5042791;28;20025;-51
2022/04/23 05:13:29;;;;;;;3.00;1.40;;;;;;;-140.79;100.00;63287.88;5045464;28;20095;-51
2022/04/23 05:15:55;;;;;;;3.28;1.60;;;;;;;-140.79;100.00;63287.88;5046896;28;20707;-51
2022/04/23 05:18:20;;;;;;;2.20;1.30;;;;;;;-140.79;100.00;63287.88;5049547;28;20469;-52
2022/04/23 05:20:46;;;;;;;1.70;1.35;;;;;;;-140.79;100.00;63287.88;5059871;28;20029;-52
2022/04/23 05:23:11;;;;;;;2.42;1.60;;;;;;;-140.79;100.00;63287.88;5028440;28;20037;-51
2022/04/23 05:25:37;;;;;;;2.03;1.40;;;;;;;-140.79;100.00;63287.88;5046807;28;20043;-51
2022/04/23 05:28:02;;;;;;;3.13;1.30;;;;;;;-140.79;100.00;63287.88;5046163;28;20086;-55
2022/04/23 05:30:28;;;;;;;1.73;1.30;;;;;;;-140.79;100.00;63287.88;5030330;28;20045;-52
2022/04/23 05:32:53;;;;;;;2.22;1.63;;;;;;;-140.79;100.00;63287.88;5046379;28;20132;-52
2022/04/23 05:35:19;;;;;;;2.35;1.38;;;;;;;-140.79;100.00;63287.88;5046240;28;20033;-50
2022/04/23 05:37:45;;;;;;;1.75;1.30;;;;;;;-140.79;100.00;63287.88;5046239;28;20029;-51
2022/04/23 05:40:11;;;;;;;2.22;1.40;;;;;;;-140.79;100.00;63287.88;5062727;28;20123;-52
2022/04/23 05:42:36;;;;;;;1.98;1.50;;;;;;;-140.79;100.00;63287.88;5046092;28;20028;-51
2022/04/23 05:45:01;;;;;;;2.40;1.40;;;;;;;-140.79;100.00;63287.88;5046391;28;20033;-52
2022/04/23 05:47:27;;;;;;;2.95;1.40;;;;;;;-140.79;100.00;63287.88;5046217;28;20052;-53
2022/04/23 05:49:52;;;;;;;1.85;1.40;;;;;;;-140.79;100.00;63287.88;5045769;28;20033;-53
2022/04/23 05:52:18;;;;;;;1.52;1.15;;;;;;;-140.79;100.00;63287.88;5045354;28;20565;-53
2022/04/23 05:54:43;;;;;;;4.50;1.33;;;;;;;-140.79;100.00;63287.88;5028497;28;20492;-51
2022/04/23 05:57:09;;;;;;;1.50;1.20;;;;;;;-140.79;100.00;63287.88;5045885;28;20032;-53
2022/04/23 05:59:34;;;;;;;1.95;1.30;;;;;;;-140.79;100.00;63287.88;5058884;28;20040;-52
2022/04/23 06:02:00;;;;;;;4.72;1.70;;;;;;;-140.79;100.00;63287.88;5029589;28;20025;-52
2022/04/23 06:04:26;;;;;;;2.35;1.40;;;;;;;-140.79;100.00;63287.88;5027952;28;20424;-52
2022/04/23 06:06:52;;;;;;;2.67;1.48;;;;;;;-140.79;100.00;63287.88;5046004;28;20040;-52
2022/04/23 06:09:17;;;;;;;2.83;1.50;;;;;;;-140.79;100.00;63287.88;5016993;28;20528;-52
2022/04/23 06:11:43;;;;;;;1.77;1.35;;;;;;;-140.79;100.00;63287.88;5025528;28;20440;-52
2022/04/23 06:14:08;;;;;;;3.80;1.50;;;;;;;-140.79;100.00;63287.88;5043189;28;20547;-52
2022/04/23 06:16:36;;;;;;;4.07;1.50;;;;;;;-140.79;100.00;63287.88;5045782;28;20857;-55
2022/04/23 06:19:01;;;;;;;2.65;1.40;;;;;;;-140.79;100.00;63287.88;5045560;28;20032;-56
2022/04/23 06:21:26;;;;;;;1.75;1.30;;;;;;;-140.79;100.00;63287.88;5053474;28;20044;-53
2022/04/23 06:23:52;;;;;;;2.42;1.58;;;;;;;-140.79;100.00;63287.88;5041014;28;20032;-53
2022/04/23 06:26:17;;;;;;;2.22;1.48;;;;;;;-140.79;100.00;63287.88;5045268;28;20025;-53
2022/04/23 06:28:43;;;;;;;2.40;1.30;;;;;;;-140.79;100.00;63287.88;5027532;28;20035;-53
2022/04/23 06:31:08;;;;;;;2.13;1.48;;;;;;;-140.79;100.00;63287.88;5045155;28;20111;-53
2022/04/23 06:33:34;;;;;;;2.03;1.40;;;;;;;-140.79;100.00;63287.88;5039966;28;20037;-52
2022/04/23 06:35:59;;;;;;;2.22;1.38;;;;;;;-140.79;100.00;63287.88;5022620;28;20523;-52
2022/04/23 06:38:25;;;;;;;2.40;1.30;;;;;;;-140.79;100.00;63287.88;5033353;28;20036;-55
2022/04/23 06:40:51;;;;;;;4.43;1.70;;;;;;;-140.79;100.00;63287.88;5059073;28;20401;-53
2022/04/23 06:43:17;;;;;;;2.20;1.17;;;;;;;-140.79;100.00;63287.88;5027317;28;20043;-52
2022/04/23 06:45:42;;;;;;;3.05;1.40;;;;;;;-140.79;100.00;63287.88;5045427;28;20036;-53
2022/04/23 06:48:08;;;;;;;4.82;2.00;;;;;;;-140.79;100.00;63287.88;5044958;28;20029;-54
2022/04/23 06:50:34;;;;;;;6.13;2.40;;;;;;;-140.79;100.00;63287.88;5044103;28;20105;-54
2022/04/23 06:53:00;;;;;;;4.35;2.08;;;;;;;-140.79;100.00;63287.88;5043035;28;20068;-53
2022/04/23 06:55:26;;;;;;;5.05;2.13;;;;;;;-140.79;100.00;63287.88;5044119;28;20048;-52
2022/04/23 06:57:51;;;;;;;3.88;2.22;;;;;;;-140.79;100.00;63287.88;5043354;28;20044;-52
2022/04/23 07:00:17;;;;;;;4.05;2.20;;;;;;;-140.79;100.00;63287.88;5044916;28;20045;-53
2022/04/23 07:02:42;;;;;;;3.13;2.08;;;;;;;-140.79;100.00;63287.88;5026552;28;20523;-51
2022/04/23 07:05:08;;;;;;;3.95;2.17;;;;;;;-140.79;100.00;63287.88;5045130;28;20072;-52
2022/04/23 07:07:33;;;;;;;4.53;1.80;;;;;;;-140.79;100.00;63287.88;5044929;28;20508;-52
2022/04/23 07:09:59;;;;;;;3.45;1.90;;;;;;;-140.79;100.00;63287.88;5043653;28;20033;-52
2022/04/23 07:12:25;;;;;;;3.55;2.10;;;;;;;-140.79;100.00;63287.88;5026814;28;20536;-53
2022/04/23 07:14:51;;;;;;;3.60;1.90;;;;;;;-140.79;100.00;63287.88;5044651;28;20486;-54
2022/04/23 07:17:22;;;;;;;3.35;2.17;;;;;;;-140.79;100.00;63287.88;5044828;28;20025;-51
2022/04/23 07:19:48;;;;;;;3.55;2.10;;;;;;;-140.79;100.00;63287.88;5042089;28;20036;-55
2022/04/23 07:22:13;;;;;;;4.07;2.00;;;;;;;-140.79;100.00;63287.88;5046129;28;20047;-52
2022/04/23 07:24:39;;;;;;;3.80;1.77;;;;;;;-140.79;100.00;63287.88;5044731;28;20136;-52
2022/04/23 07:27:04;;;;;;;4.20;2.03;;;;;;;-140.79;100.00;63287.88;5044651;28;20029;-52
2022/04/23 07:29:30;;;;;;;4.38;2.28;;;;;;;-140.79;100.00;63287.88;5043814;28;20700;-55
2022/04/23 07:31:57;;;;;;;5.55;2.03;;;;;;;-140.79;100.00;63287.88;5044067;28;20053;-51
2022/04/23 07:39:51;;;;;;;3.90;2.25;;;;;;;-140.79;100.00;63287.88;5059256;28;20146;-52
2022/04/23 07:42:16;;;;;;;3.78;1.90;;;;;;;-140.79;100.00;63287.88;5057784;28;20017;-51
2022/04/23 07:44:42;;;;;;;4.35;1.85;;;;;;;-140.79;100.00;63287.88;5029253;28;20025;-50
2022/04/23 07:47:07;;;;;;;9.75;2.20;;;;;;;-140.79;100.00;63287.88;5044033;28;20032;-52
2022/04/23 07:49:33;;;;;;;4.45;2.08;;;;;;;-140.79;100.00;63287.88;5044160;28;20037;-50
2022/04/23 07:51:59;;;;;;;6.22;2.05;;;;;;;-140.79;100.00;63287.88;5044246;28;20507;-53
2022/04/23 07:54:25;;;;;;;6.65;2.40;;;;;;;-140.79;100.00;63287.88;5026104;28;20025;-51
2022/04/23 07:56:50;;;;;;;3.97;2.10;;;;;;;-140.79;100.00;63287.88;5044074;28;20029;-52
2022/04/23 07:59:16;;;;;;;5.25;1.95;;;;;;;-140.79;100.00;63287.88;5053957;28;20048;-51
2022/04/23 08:01:41;;;;;;;4.07;1.80;;;;;;;-140.79;100.00;63287.88;5064115;28;20039;-53
2022/04/23 08:04:07;;;;;;;4.70;2.20;;;;;;;-140.79;100.00;63287.88;5062786;28;20545;-59
2022/04/23 08:06:32;;;;;;;6.93;2.20;;;;;;;-140.79;100.00;63287.88;5044016;28;20503;-52
2022/04/23 08:08:58;;;;;;;5.35;2.33;;;;;;;-140.79;100.00;63287.88;5026361;28;20029;-51
2022/04/23 08:11:23;;;;;;;4.65;1.92;;;;;;;-140.79;100.00;63287.88;5044073;28;20087;-51
2022/04/23 08:13:50;;;;;;;5.53;2.28;;;;;;;-140.79;100.00;63287.88;5043621;28;20033;-53
2022/04/23 08:16:15;;;;;;;5.63;2.00;;;;;;;-140.79;100.00;63287.88;5043642;28;20037;-51
2022/04/23 08:18:41;;;;;;;5.03;2.22;;;;;;;-140.79;100.00;63287.88;5025823;28;20040;-51
2022/04/23 08:21:06;;;;;;;4.20;2.00;;;;;;;-140.79;100.00;63287.88;5043863;28;20036;-52
2022/04/23 08:23:33;;;;;;;5.57;2.30;;;;;;;-140.79;100.00;63287.88;5043958;28;20491;-52
2022/04/23 08:26:01;;;;;;;5.80;2.72;;;;;;;-140.79;100.00;63287.88;5025343;28;20112;-51
2022/04/23 08:31:12;;;;;;;3.72;2.00;;;;;;;-140.79;100.00;63287.88;5043630;28;20056;-53
2022/04/23 08:36:22;;;;;;;3.30;1.85;;;;;;;-140.79;100.00;63287.88;5044000;28;20413;-51
2022/04/23 08:38:49;;;;;;;4.75;2.10;;;;;;;-140.79;100.00;63287.88;5043721;28;20025;-51
2022/04/23 08:41:14;;;;;;;2.55;1.73;;;;;;;-140.79;100.00;63287.88;5043818;28;20042;-51
2022/04/23 08:43:42;;;;;;;4.22;2.25;;;;;;;-140.79;100.00;63287.88;5025783;28;20029;-50
2022/04/23 08:46:09;;;;;;;5.07;1.80;;;;;;;-140.79;100.00;63287.88;5026156;28;20033;-52
2022/04/23 08:48:39;;;;;;;2.17;1.60;;;;;;;-140.79;100.00;63287.88;5046907;28;20059;-52
2022/04/23 08:51:05;;;;;;;;;;;;;;;-140.79;100.00;63287.88;5030400;28;20596;-51
2022/04/23 08:53:31;;;;;;;3.25;1.80;;;;;;;-140.79;100.00;63287.88;5029717;28;19928;-52
2022/04/23 08:55:57;;;;;;;2.95;1.88;;;;;;;-140.79;100.00;63287.88;5047592;28;20112;-53
2022/04/23 08:58:23;;;;;;;4.55;1.95;;;;;;;-140.79;100.00;63287.88;5048672;28;20059;-51
2022/04/23 09:00:49;;;;;;;3.28;1.90;;;;;;;-140.79;100.00;63287.88;5067565;28;20028;-53
2022/04/23 09:03:17;;;;;;;3.28;1.67;;;;;;;-140.79;100.00;63287.88;5049671;28;20039;-52
2022/04/23 09:05:43;;;;;;;3.15;1.67;;;;;;;-140.79;100.00;63287.88;5053930;28;20067;-51
2022/04/23 09:08:09;;;;;;;3.67;1.83;;;;;;;-140.79;100.00;63287.88;5046540;28;20033;-52
2022/04/23 09:10:51;;;;;;;2.92;1.58;;;;;;;-140.79;100.00;63287.88;5047079;28;20044;-52
2022/04/23 09:13:32;;;;;;;2.70;1.60;;;;;;;-140.79;100.00;63287.88;5028812;28;20037;-53
2022/04/23 09:24:20;;;;;;;2.60;1.50;;;;;;;-140.79;100.00;63287.88;5049388;28;21105;-51
2022/04/23 09:27:05;;;;;;;2.38;1.50;;;;;;;-140.79;100.00;63287.88;5061161;28;20054;-52
2022/04/23 09:29:30;;;;;;;2.70;1.63;;;;;;;-140.79;100.00;63287.88;5047086;28;20025;-51
2022/04/23 09:32:14;;;;;;;2.92;1.55;;;;;;;-140.79;100.00;63287.88;5028329;28;20091;-53
2022/04/23 09:34:40;;;;;;;2.38;1.50;;;;;;;-140.79;100.00;63287.88;5046929;28;20036;-51
2022/04/23 09:37:08;;;;;;;2.55;1.80;;;;;;;-140.79;100.00;63287.88;5012203;28;20029;-52
2022/04/23 09:39:35;;;;;;;4.05;1.58;;;;;;;-140.79;100.00;63287.88;5046737;28;20090;-50
2022/04/23 09:42:18;;;;;;;3.63;1.60;;;;;;;-140.79;100.00;63287.88;5046145;28;20037;-55
2022/04/23 09:44:44;;;;;;;2.50;1.40;;;;;;;-140.79;100.00;63287.88;5051651;28;20065;-51
2022/04/23 09:47:11;;;;;;;2.22;1.58;;;;;;;-140.79;100.00;63287.88;5053021;28;20485;-51
2022/04/23 09:49:38;;;;;;;2.42;1.38;;;;;;;-140.79;100.00;63287.88;5004754;28;20049;-51
2022/04/23 09:52:05;;;;;;;3.55;1.48;;;;;;;-140.79;100.00;63287.88;5045639;28;20036;-51
2022/04/23 09:54:31;;;;;;;2.13;1.40;;;;;;;-140.79;100.00;63287.88;5046161;28;20035;-52
2022/04/23 09:56:57;;;;;;;3.55;1.50;;;;;;;-140.79;100.00;63287.88;5028606;28;20037;-52
2022/04/23 09:59:23;;;;;;;3.15;1.60;;;;;;;-140.79;100.00;63287.88;5045289;28;20136;-50
2022/04/23 10:01:53;;;;;;;3.53;1.60;;;;;;;-140.79;100.00;63287.88;5045563;28;20128;-51
2022/04/23 10:04:24;;;;;;;1.80;1.33;;;;;;;-140.79;100.00;63287.88;5030024;28;20040;-54
2022/04/23 10:06:56;;;;;;;4.78;1.73;;;;;;;-140.79;100.00;63287.88;5031898;28;20795;-50
2022/04/23 10:09:27;;;;;;;3.15;1.70;;;;;;;-140.79;100.00;63287.88;5028427;28;20025;-51
2022/04/23 10:12:00;;;;;;;2.75;1.60;;;;;;;-140.79;100.00;63287.88;5045663;28;20037;-50
2022/04/23 10:14:26;;;;;;;3.35;1.58;;;;;;;-140.79;100.00;63287.88;5027698;28;21002;-50
2022/04/23 10:16:53;;;;;;;2.22;1.30;;;;;;;-140.79;100.00;63287.88;5027479;28;20036;-51
2022/04/23 10:19:19;;;;;;;2.80;1.33;;;;;;;-140.79;100.00;63287.88;5038188;28;20133;-52
2022/04/23 10:21:57;;;;;;;3.05;1.85;;;;;;;-140.79;100.00;63287.88;5047609;28;20495;-51
2022/04/23 10:24:43;;;;;;;2.65;1.42;;;;;;;-140.79;100.00;63287.88;5046287;28;20029;-52
2022/04/23 10:27:09;;;;;;;3.30;1.50;;;;;;;-140.79;100.00;63287.88;5045754;28;20045;-51
2022/04/23 10:29:35;;;;;;;1.90;1.30;;;;;;;-140.79;100.00;63287.88;5045730;28;20033;-51
2022/04/23 10:32:40;;;;;;;3.55;1.50;;;;;;;-140.79;100.00;63287.88;5027924;28;20099;-51
2022/04/23 10:35:17;;;;;;;3.85;1.80;;;;;;;-140.79;100.00;63287.88;5027737;28;20091;-51
2022/04/23 10:37:43;;;;;;;3.78;1.25;;;;;;;-140.79;100.00;63287.88;5045485;28;20029;-51
2022/04/23 10:40:12;;;;;;;4.43;1.60;;;;;;;-140.79;100.00;63287.88;5045270;28;20543;-52
2022/04/23 10:42:38;;;;;;;3.33;1.73;;;;;;;-140.79;100.00;63287.88;5045247;28;20265;-51
2022/04/23 10:45:05;;;;;;;4.00;1.60;;;;;;;-140.79;100.00;63287.88;5053122;28;20028;-51
2022/04/23 10:47:34;;;;;;;2.90;1.25;;;;;;;-140.79;100.00;63287.88;5035895;28;20037;-51
2022/04/23 10:50:23;;;;;;;3.67;1.60;;;;;;;-140.79;100.00;63287.88;5027616;28;20120;-51
2022/04/23 10:52:55;;;;;;;3.33;1.63;;;;;;;-140.79;100.00;63287.88;5044800;28;20041;-51
2022/04/23 10:55:21;;;;;;;1.90;1.38;;;;;;;-140.79;100.00;63287.88;5045651;28;20032;-51
2022/04/23 10:57:47;;;;;;;4.13;1.67;;;;;;;-140.79;100.00;63287.88;5043766;28;20472;-53
2022/04/23 11:00:16;;;;;;;4.95;1.60;;;;;;;-140.79;100.00;63287.88;5062154;28;20461;-55
2022/04/23 11:02:42;;;;;;;4.13;1.40;;;;;;;-140.79;100.00;63287.88;5064583;28;20032;-52
2022/04/23 11:14:37;;;;;;;3.67;1.63;;;;;;;-140.79;100.00;63287.88;5029136;28;20111;-52
2022/04/23 11:17:02;;;;;;;3.60;1.83;;;;;;;-140.79;100.00;63287.88;5044828;28;20104;-51
2022/04/23 11:19:28;;;;;;;3.22;1.60;;;;;;;-140.79;100.00;63287.88;5021630;28;20063;-51
2022/04/23 11:21:53;;;;;;;3.50;1.58;;;;;;;-140.79;100.00;63287.88;5046613;28;20036;-52
2022/04/23 11:24:19;;;;;;;4.10;1.83;;;;;;;-140.79;100.00;63287.88;5063301;28;20032;-52
2022/04/23 11:26:45;;;;;;;4.20;1.50;;;;;;;-140.79;100.00;63287.88;5027249;28;20131;-51
2022/04/23 11:29:11;;;;;;;4.70;1.90;;;;;;;-140.79;100.00;63287.88;5045155;28;20040;-51
2022/04/23 11:31:37;;;;;;;4.25;1.50;;;;;;;-140.79;100.00;63287.88;5044180;28;20053;-51
2022/04/23 11:34:02;;;;;;;5.25;1.73;;;;;;;-140.79;100.00;63287.88;5044924;28;20040;-53
2022/04/23 11:36:31;;;;;;;3.55;1.95;;;;;;;-140.79;100.00;63287.88;5044229;28;20087;-52